sensor_id;sensor_type;location;lat;lon;timestamp;P1;durP1;ratioP1;P2;durP2;ratioP2
11287;SDS011;5700;50.996;7.044;2023-12-20T00:01:24;14.00;;;7.53;;
11287;SDS011;5700;50.996;7.044;2023-12-20T00:04:25;17.05;;;7.60;;
11287;SDS011;5700;50.996;7.044;2023-12-20T00:07:27;14.85;;;7.90;;
11287;SDS011;5700;50.996;7.044;2023-12-20T00:10:29;14.73;;;7.82;;
11287;SDS011;5700;50.996;7.044;2023-12-20T00:13:32;15.63;;;7.60;;
11287;SDS011;5700;50.996;7.044;2023-12-20T00:16:33;16.55;;;8.10;;
11287;SDS011;5700;50.996;7.044;2023-12-20T00:19:35;15.10;;;8.07;;
11287;SDS011;5700;50.996;7.044;2023-12-20T00:22:36;13.50;;;8.00;;
11287;SDS011;5700;50.996;7.044;2023-12-20T00:25:37;14.82;;;8.20;;
11287;SDS011;5700;50.996;7.044;2023-12-20T00:28:41;14.15;;;7.78;;
11287;SDS011;5700;50.996;7.044;2023-12-20T00:31:43;17.15;;;9.10;;
11287;SDS011;5700;50.996;7.044;2023-12-20T00:34:44;15.13;;;7.78;;
11287;SDS011;5700;50.996;7.044;2023-12-20T00:37:46;15.10;;;8.05;;
11287;SDS011;5700;50.996;7.044;2023-12-20T00:40:47;9.52;;;5.65;;
11287;SDS011;5700;50.996;7.044;2023-12-20T00:43:51;13.20;;;6.03;;
11287;SDS011;5700;50.996;7.044;2023-12-20T00:46:53;12.02;;;6.72;;
11287;SDS011;5700;50.996;7.044;2023-12-20T00:49:54;12.75;;;6.63;;
11287;SDS011;5700;50.996;7.044;2023-12-20T00:52:55;13.20;;;7.05;;
11287;SDS011;5700;50.996;7.044;2023-12-20T00:55:57;12.82;;;5.32;;
11287;SDS011;5700;50.996;7.044;2023-12-20T00:59:00;10.02;;;4.90;;
11287;SDS011;5700;50.996;7.044;2023-12-20T01:02:02;13.38;;;5.70;;
11287;SDS011;5700;50.996;7.044;2023-12-20T01:05:04;14.02;;;6.03;;
11287;SDS011;5700;50.996;7.044;2023-12-20T01:08:07;15.25;;;6.63;;
11287;SDS011;5700;50.996;7.044;2023-12-20T01:11:08;12.98;;;7.50;;
11287;SDS011;5700;50.996;7.044;2023-12-20T01:14:12;10.90;;;5.18;;
11287;SDS011;5700;50.996;7.044;2023-12-20T01:17:13;9.60;;;5.18;;
11287;SDS011;5700;50.996;7.044;2023-12-20T01:20:15;13.10;;;4.95;;
11287;SDS011;5700;50.996;7.044;2023-12-20T01:23:17;11.00;;;4.43;;
11287;SDS011;5700;50.996;7.044;2023-12-20T01:26:18;13.77;;;4.90;;
11287;SDS011;5700;50.996;7.044;2023-12-20T01:29:21;12.45;;;5.03;;
11287;SDS011;5700;50.996;7.044;2023-12-20T01:32:23;9.93;;;4.18;;
11287;SDS011;5700;50.996;7.044;2023-12-20T01:35:24;9.60;;;4.75;;
11287;SDS011;5700;50.996;7.044;2023-12-20T01:38:25;11.48;;;4.32;;
11287;SDS011;5700;50.996;7.044;2023-12-20T01:41:27;13.75;;;5.70;;
11287;SDS011;5700;50.996;7.044;2023-12-20T01:44:30;12.73;;;5.65;;
11287;SDS011;5700;50.996;7.044;2023-12-20T01:47:32;12.90;;;5.95;;
11287;SDS011;5700;50.996;7.044;2023-12-20T01:50:33;13.50;;;6.13;;
11287;SDS011;5700;50.996;7.044;2023-12-20T01:53:37;16.95;;;6.13;;
11287;SDS011;5700;50.996;7.044;2023-12-20T01:56:39;20.08;;;7.03;;
11287;SDS011;5700;50.996;7.044;2023-12-20T01:59:43;16.98;;;7.03;;
11287;SDS011;5700;50.996;7.044;2023-12-20T02:02:45;14.90;;;6.75;;
11287;SDS011;5700;50.996;7.044;2023-12-20T02:05:47;16.92;;;6.70;;
11287;SDS011;5700;50.996;7.044;2023-12-20T02:08:49;16.30;;;7.53;;
11287;SDS011;5700;50.996;7.044;2023-12-20T02:11:51;18.17;;;7.20;;
11287;SDS011;5700;50.996;7.044;2023-12-20T02:14:54;14.93;;;7.43;;
11287;SDS011;5700;50.996;7.044;2023-12-20T02:17:55;15.38;;;6.07;;
11287;SDS011;5700;50.996;7.044;2023-12-20T02:20:58;14.90;;;5.63;;
11287;SDS011;5700;50.996;7.044;2023-12-20T02:24:02;15.45;;;6.35;;
11287;SDS011;5700;50.996;7.044;2023-12-20T02:27:03;21.85;;;7.13;;
11287;SDS011;5700;50.996;7.044;2023-12-20T02:30:08;18.88;;;6.18;;
11287;SDS011;5700;50.996;7.044;2023-12-20T02:33:10;19.98;;;6.55;;
11287;SDS011;5700;50.996;7.044;2023-12-20T02:36:13;18.27;;;6.28;;
11287;SDS011;5700;50.996;7.044;2023-12-20T02:39:17;19.52;;;6.05;;
11287;SDS011;5700;50.996;7.044;2023-12-20T02:42:19;18.48;;;6.15;;
11287;SDS011;5700;50.996;7.044;2023-12-20T02:45:20;18.33;;;5.75;;
11287;SDS011;5700;50.996;7.044;2023-12-20T02:48:22;19.17;;;6.55;;
11287;SDS011;5700;50.996;7.044;2023-12-20T02:51:24;14.98;;;5.95;;
11287;SDS011;5700;50.996;7.044;2023-12-20T02:54:27;15.32;;;5.10;;
11287;SDS011;5700;50.996;7.044;2023-12-20T02:57:28;12.38;;;5.28;;
11287;SDS011;5700;50.996;7.044;2023-12-20T03:04:11;18.08;;;4.20;;
11287;SDS011;5700;50.996;7.044;2023-12-20T03:07:12;11.65;;;3.50;;
11287;SDS011;5700;50.996;7.044;2023-12-20T03:10:15;8.85;;;3.53;;
11287;SDS011;5700;50.996;7.044;2023-12-20T03:13:17;11.80;;;3.92;;
11287;SDS011;5700;50.996;7.044;2023-12-20T03:16:19;12.85;;;3.33;;
11287;SDS011;5700;50.996;7.044;2023-12-20T03:19:20;13.85;;;3.30;;
11287;SDS011;5700;50.996;7.044;2023-12-20T03:22:22;10.07;;;3.30;;
11287;SDS011;5700;50.996;7.044;2023-12-20T03:25:26;8.98;;;3.33;;
11287;SDS011;5700;50.996;7.044;2023-12-20T03:28:28;10.63;;;2.42;;
11287;SDS011;5700;50.996;7.044;2023-12-20T03:31:30;9.40;;;2.28;;
11287;SDS011;5700;50.996;7.044;2023-12-20T03:34:32;14.32;;;2.58;;
11287;SDS011;5700;50.996;7.044;2023-12-20T03:37:33;9.38;;;2.45;;
11287;SDS011;5700;50.996;7.044;2023-12-20T03:40:36;6.50;;;2.22;;
11287;SDS011;5700;50.996;7.044;2023-12-20T03:43:38;11.35;;;2.45;;
11287;SDS011;5700;50.996;7.044;2023-12-20T03:46:40;21.95;;;4.25;;
11287;SDS011;5700;50.996;7.044;2023-12-20T03:49:41;10.60;;;2.45;;
11287;SDS011;5700;50.996;7.044;2023-12-20T03:52:43;9.27;;;2.72;;
11287;SDS011;5700;50.996;7.044;2023-12-20T03:55:45;13.60;;;2.95;;
11287;SDS011;5700;50.996;7.044;2023-12-20T03:58:47;16.98;;;3.03;;
11287;SDS011;5700;50.996;7.044;2023-12-20T04:01:49;12.65;;;2.97;;
11287;SDS011;5700;50.996;7.044;2023-12-20T04:04:51;12.00;;;2.80;;
11287;SDS011;5700;50.996;7.044;2023-12-20T04:07:53;10.18;;;3.53;;
11287;SDS011;5700;50.996;7.044;2023-12-20T04:10:56;21.85;;;3.10;;
11287;SDS011;5700;50.996;7.044;2023-12-20T04:13:57;7.65;;;2.67;;
11287;SDS011;5700;50.996;7.044;2023-12-20T04:16:59;15.45;;;3.42;;
11287;SDS011;5700;50.996;7.044;2023-12-20T04:20:00;8.57;;;3.08;;
11287;SDS011;5700;50.996;7.044;2023-12-20T04:23:02;13.05;;;3.67;;
11287;SDS011;5700;50.996;7.044;2023-12-20T04:26:05;8.48;;;2.85;;
11287;SDS011;5700;50.996;7.044;2023-12-20T04:29:07;10.77;;;2.78;;
11287;SDS011;5700;50.996;7.044;2023-12-20T04:32:08;15.45;;;3.03;;
11287;SDS011;5700;50.996;7.044;2023-12-20T04:35:10;13.93;;;3.10;;
11287;SDS011;5700;50.996;7.044;2023-12-20T04:38:12;13.30;;;3.78;;
11287;SDS011;5700;50.996;7.044;2023-12-20T04:41:15;10.48;;;3.53;;
11287;SDS011;5700;50.996;7.044;2023-12-20T04:44:18;10.00;;;3.33;;
11287;SDS011;5700;50.996;7.044;2023-12-20T04:47:20;11.20;;;3.33;;
11287;SDS011;5700;50.996;7.044;2023-12-20T04:50:22;10.82;;;3.10;;
11287;SDS011;5700;50.996;7.044;2023-12-20T04:53:24;15.00;;;2.83;;
11287;SDS011;5700;50.996;7.044;2023-12-20T04:56:27;16.83;;;3.60;;
11287;SDS011;5700;50.996;7.044;2023-12-20T04:59:28;12.88;;;3.08;;
11287;SDS011;5700;50.996;7.044;2023-12-20T05:02:30;20.08;;;4.07;;
11287;SDS011;5700;50.996;7.044;2023-12-20T05:05:32;16.90;;;3.72;;
11287;SDS011;5700;50.996;7.044;2023-12-20T05:08:34;16.02;;;3.33;;
11287;SDS011;5700;50.996;7.044;2023-12-20T05:11:37;14.75;;;3.53;;
11287;SDS011;5700;50.996;7.044;2023-12-20T05:14:39;14.18;;;3.33;;
11287;SDS011;5700;50.996;7.044;2023-12-20T05:17:40;13.98;;;3.65;;
11287;SDS011;5700;50.996;7.044;2023-12-20T05:20:42;15.32;;;3.70;;
11287;SDS011;5700;50.996;7.044;2023-12-20T05:23:43;13.98;;;3.58;;
11287;SDS011;5700;50.996;7.044;2023-12-20T05:26:46;14.25;;;3.53;;
11287;SDS011;5700;50.996;7.044;2023-12-20T05:29:48;12.23;;;3.15;;
11287;SDS011;5700;50.996;7.044;2023-12-20T05:32:50;11.68;;;3.55;;
11287;SDS011;5700;50.996;7.044;2023-12-20T05:35:52;6.93;;;2.75;;
11287;SDS011;5700;50.996;7.044;2023-12-20T05:38:54;7.90;;;2.72;;
11287;SDS011;5700;50.996;7.044;2023-12-20T05:41:57;13.27;;;3.50;;
11287;SDS011;5700;50.996;7.044;2023-12-20T05:44:58;10.75;;;3.40;;
11287;SDS011;5700;50.996;7.044;2023-12-20T05:48:00;19.48;;;3.75;;
11287;SDS011;5700;50.996;7.044;2023-12-20T05:51:01;16.08;;;3.30;;
11287;SDS011;5700;50.996;7.044;2023-12-20T05:54:04;12.18;;;4.47;;
11287;SDS011;5700;50.996;7.044;2023-12-20T05:57:06;14.38;;;4.13;;
11287;SDS011;5700;50.996;7.044;2023-12-20T06:00:08;13.52;;;4.47;;
11287;SDS011;5700;50.996;7.044;2023-12-20T06:03:11;14.13;;;2.70;;
11287;SDS011;5700;50.996;7.044;2023-12-20T06:06:12;9.15;;;3.15;;
11287;SDS011;5700;50.996;7.044;2023-12-20T06:09:14;15.05;;;3.35;;
11287;SDS011;5700;50.996;7.044;2023-12-20T06:12:18;11.45;;;2.88;;
11287;SDS011;5700;50.996;7.044;2023-12-20T06:15:19;10.55;;;3.40;;
11287;SDS011;5700;50.996;7.044;2023-12-20T06:18:21;10.40;;;2.95;;
11287;SDS011;5700;50.996;7.044;2023-12-20T06:21:22;13.27;;;2.95;;
11287;SDS011;5700;50.996;7.044;2023-12-20T06:24:24;14.30;;;3.13;;
11287;SDS011;5700;50.996;7.044;2023-12-20T06:27:29;9.63;;;2.85;;
11287;SDS011;5700;50.996;7.044;2023-12-20T06:30:32;10.07;;;2.80;;
11287;SDS011;5700;50.996;7.044;2023-12-20T06:33:34;20.23;;;3.33;;
11287;SDS011;5700;50.996;7.044;2023-12-20T06:36:35;13.10;;;2.80;;
11287;SDS011;5700;50.996;7.044;2023-12-20T06:39:37;7.63;;;2.58;;
11287;SDS011;5700;50.996;7.044;2023-12-20T06:42:40;18.65;;;3.20;;
11287;SDS011;5700;50.996;7.044;2023-12-20T06:45:42;7.00;;;2.53;;
11287;SDS011;5700;50.996;7.044;2023-12-20T06:48:43;16.05;;;3.55;;
11287;SDS011;5700;50.996;7.044;2023-12-20T06:51:45;13.43;;;3.28;;
11287;SDS011;5700;50.996;7.044;2023-12-20T06:54:47;10.70;;;2.88;;
11287;SDS011;5700;50.996;7.044;2023-12-20T06:57:50;8.60;;;2.83;;
11287;SDS011;5700;50.996;7.044;2023-12-20T07:00:51;12.90;;;3.05;;
11287;SDS011;5700;50.996;7.044;2023-12-20T07:03:53;16.55;;;3.67;;
11287;SDS011;5700;50.996;7.044;2023-12-20T07:06:54;15.32;;;2.83;;
11287;SDS011;5700;50.996;7.044;2023-12-20T07:09:57;9.32;;;2.90;;
11287;SDS011;5700;50.996;7.044;2023-12-20T07:13:00;8.95;;;2.72;;
11287;SDS011;5700;50.996;7.044;2023-12-20T07:16:02;9.73;;;2.40;;
11287;SDS011;5700;50.996;7.044;2023-12-20T07:19:04;14.40;;;3.47;;
11287;SDS011;5700;50.996;7.044;2023-12-20T07:22:06;10.93;;;2.65;;
11287;SDS011;5700;50.996;7.044;2023-12-20T07:25:08;10.88;;;2.92;;
11287;SDS011;5700;50.996;7.044;2023-12-20T07:28:12;12.57;;;2.90;;
11287;SDS011;5700;50.996;7.044;2023-12-20T07:31:15;17.17;;;3.13;;
11287;SDS011;5700;50.996;7.044;2023-12-20T07:34:17;11.13;;;3.17;;
11287;SDS011;5700;50.996;7.044;2023-12-20T07:37:19;12.23;;;2.38;;
11287;SDS011;5700;50.996;7.044;2023-12-20T07:40:21;11.15;;;2.60;;
11287;SDS011;5700;50.996;7.044;2023-12-20T07:43:25;13.80;;;3.08;;
11287;SDS011;5700;50.996;7.044;2023-12-20T07:46:27;12.70;;;3.13;;
11287;SDS011;5700;50.996;7.044;2023-12-20T07:49:29;8.00;;;2.63;;
11287;SDS011;5700;50.996;7.044;2023-12-20T07:52:31;10.15;;;2.60;;
11287;SDS011;5700;50.996;7.044;2023-12-20T07:55:33;13.80;;;3.03;;
11287;SDS011;5700;50.996;7.044;2023-12-20T07:58:37;14.48;;;3.67;;
11287;SDS011;5700;50.996;7.044;2023-12-20T08:01:38;8.68;;;2.67;;
11287;SDS011;5700;50.996;7.044;2023-12-20T08:04:40;11.23;;;3.10;;
11287;SDS011;5700;50.996;7.044;2023-12-20T08:07:41;15.55;;;3.00;;
11287;SDS011;5700;50.996;7.044;2023-12-20T08:10:43;15.32;;;3.15;;
11287;SDS011;5700;50.996;7.044;2023-12-20T08:13:45;12.40;;;2.95;;
11287;SDS011;5700;50.996;7.044;2023-12-20T08:16:47;10.63;;;3.30;;
11287;SDS011;5700;50.996;7.044;2023-12-20T08:19:49;10.13;;;3.28;;
11287;SDS011;5700;50.996;7.044;2023-12-20T08:22:50;7.50;;;2.22;;
11287;SDS011;5700;50.996;7.044;2023-12-20T08:25:52;16.95;;;4.35;;
11287;SDS011;5700;50.996;7.044;2023-12-20T08:28:55;10.80;;;3.15;;
11287;SDS011;5700;50.996;7.044;2023-12-20T08:31:56;16.27;;;3.35;;
11287;SDS011;5700;50.996;7.044;2023-12-20T08:34:58;12.35;;;2.92;;
11287;SDS011;5700;50.996;7.044;2023-12-20T08:38:00;8.98;;;2.47;;
11287;SDS011;5700;50.996;7.044;2023-12-20T08:41:01;8.32;;;2.75;;
11287;SDS011;5700;50.996;7.044;2023-12-20T08:44:06;16.05;;;3.63;;
11287;SDS011;5700;50.996;7.044;2023-12-20T08:47:08;11.57;;;2.67;;
11287;SDS011;5700;50.996;7.044;2023-12-20T08:50:13;10.45;;;3.10;;
11287;SDS011;5700;50.996;7.044;2023-12-20T08:53:15;10.48;;;2.78;;
11287;SDS011;5700;50.996;7.044;2023-12-20T08:56:17;11.50;;;2.85;;
11287;SDS011;5700;50.996;7.044;2023-12-20T08:59:20;8.25;;;2.47;;
11287;SDS011;5700;50.996;7.044;2023-12-20T09:02:22;8.15;;;2.65;;
11287;SDS011;5700;50.996;7.044;2023-12-20T09:05:23;8.73;;;2.65;;
11287;SDS011;5700;50.996;7.044;2023-12-20T09:08:25;9.77;;;3.03;;
11287;SDS011;5700;50.996;7.044;2023-12-20T09:11:27;14.93;;;2.67;;
11287;SDS011;5700;50.996;7.044;2023-12-20T09:14:30;11.05;;;2.70;;
11287;SDS011;5700;50.996;7.044;2023-12-20T09:17:32;10.32;;;3.33;;
11287;SDS011;5700;50.996;7.044;2023-12-20T09:20:34;15.35;;;2.80;;
11287;SDS011;5700;50.996;7.044;2023-12-20T09:23:35;6.97;;;2.25;;
11287;SDS011;5700;50.996;7.044;2023-12-20T09:26:37;10.00;;;2.08;;
11287;SDS011;5700;50.996;7.044;2023-12-20T09:29:41;10.80;;;2.72;;
11287;SDS011;5700;50.996;7.044;2023-12-20T09:32:43;7.70;;;2.38;;
11287;SDS011;5700;50.996;7.044;2023-12-20T09:35:45;8.73;;;2.20;;
11287;SDS011;5700;50.996;7.044;2023-12-20T09:38:47;11.20;;;2.40;;
11287;SDS011;5700;50.996;7.044;2023-12-20T09:41:49;14.60;;;3.25;;
11287;SDS011;5700;50.996;7.044;2023-12-20T09:44:58;17.33;;;3.75;;
11287;SDS011;5700;50.996;7.044;2023-12-20T09:48:02;10.07;;;2.35;;
11287;SDS011;5700;50.996;7.044;2023-12-20T09:51:05;7.53;;;1.92;;
11287;SDS011;5700;50.996;7.044;2023-12-20T09:54:07;5.53;;;2.22;;
11287;SDS011;5700;50.996;7.044;2023-12-20T09:57:09;14.50;;;2.75;;
11287;SDS011;5700;50.996;7.044;2023-12-20T10:00:12;8.18;;;2.08;;
11287;SDS011;5700;50.996;7.044;2023-12-20T10:03:14;9.57;;;2.13;;
11287;SDS011;5700;50.996;7.044;2023-12-20T10:06:16;8.63;;;2.17;;
11287;SDS011;5700;50.996;7.044;2023-12-20T10:09:18;8.20;;;2.10;;
11287;SDS011;5700;50.996;7.044;2023-12-20T10:12:20;9.02;;;2.08;;
11287;SDS011;5700;50.996;7.044;2023-12-20T10:15:23;5.35;;;1.90;;
11287;SDS011;5700;50.996;7.044;2023-12-20T10:18:25;17.42;;;2.67;;
11287;SDS011;5700;50.996;7.044;2023-12-20T10:21:26;8.45;;;2.10;;
11287;SDS011;5700;50.996;7.044;2023-12-20T10:24:28;10.50;;;2.58;;
11287;SDS011;5700;50.996;7.044;2023-12-20T10:27:30;7.30;;;2.08;;
11287;SDS011;5700;50.996;7.044;2023-12-20T10:30:34;17.55;;;2.88;;
11287;SDS011;5700;50.996;7.044;2023-12-20T10:33:35;8.95;;;2.42;;
11287;SDS011;5700;50.996;7.044;2023-12-20T10:36:37;8.05;;;2.47;;
11287;SDS011;5700;50.996;7.044;2023-12-20T10:39:39;8.20;;;2.47;;
11287;SDS011;5700;50.996;7.044;2023-12-20T10:42:42;12.70;;;3.20;;
11287;SDS011;5700;50.996;7.044;2023-12-20T10:45:45;10.77;;;2.50;;
11287;SDS011;5700;50.996;7.044;2023-12-20T10:48:47;16.02;;;3.00;;
11287;SDS011;5700;50.996;7.044;2023-12-20T10:51:50;9.57;;;2.25;;
11287;SDS011;5700;50.996;7.044;2023-12-20T10:54:52;9.13;;;2.40;;
11287;SDS011;5700;50.996;7.044;2023-12-20T10:57:54;8.02;;;2.10;;
11287;SDS011;5700;50.996;7.044;2023-12-20T11:01:03;13.10;;;3.22;;
11287;SDS011;5700;50.996;7.044;2023-12-20T11:04:06;12.73;;;2.22;;
11287;SDS011;5700;50.996;7.044;2023-12-20T11:07:15;11.85;;;2.30;;
11287;SDS011;5700;50.996;7.044;2023-12-20T11:10:22;8.30;;;1.98;;
11287;SDS011;5700;50.996;7.044;2023-12-20T11:13:27;12.70;;;2.72;;
11287;SDS011;5700;50.996;7.044;2023-12-20T11:16:33;8.07;;;2.55;;
11287;SDS011;5700;50.996;7.044;2023-12-20T11:19:37;7.63;;;2.22;;
11287;SDS011;5700;50.996;7.044;2023-12-20T11:22:39;11.07;;;2.40;;
11287;SDS011;5700;50.996;7.044;2023-12-20T11:25:55;9.70;;;2.42;;
11287;SDS011;5700;50.996;7.044;2023-12-20T11:32:33;6.72;;;2.25;;
11287;SDS011;5700;50.996;7.044;2023-12-20T11:35:35;10.45;;;2.33;;
11287;SDS011;5700;50.996;7.044;2023-12-20T11:38:41;6.97;;;2.25;;
11287;SDS011;5700;50.996;7.044;2023-12-20T11:41:57;5.78;;;1.48;;
11287;SDS011;5700;50.996;7.044;2023-12-20T11:45:05;7.50;;;2.22;;
11287;SDS011;5700;50.996;7.044;2023-12-20T11:48:12;6.15;;;1.98;;
11287;SDS011;5700;50.996;7.044;2023-12-20T11:51:14;4.68;;;1.75;;
11287;SDS011;5700;50.996;7.044;2023-12-20T11:54:16;7.50;;;1.80;;
11287;SDS011;5700;50.996;7.044;2023-12-20T11:57:20;6.55;;;2.40;;
11287;SDS011;5700;50.996;7.044;2023-12-20T12:00:25;11.90;;;2.05;;
11287;SDS011;5700;50.996;7.044;2023-12-20T12:03:30;8.00;;;2.08;;
11287;SDS011;5700;50.996;7.044;2023-12-20T12:06:52;5.57;;;2.42;;
11287;SDS011;5700;50.996;7.044;2023-12-20T12:09:56;7.43;;;2.15;;
11287;SDS011;5700;50.996;7.044;2023-12-20T12:13:06;10.15;;;2.10;;
11287;SDS011;5700;50.996;7.044;2023-12-20T12:16:12;5.45;;;1.70;;
11287;SDS011;5700;50.996;7.044;2023-12-20T12:19:31;7.70;;;1.90;;
11287;SDS011;5700;50.996;7.044;2023-12-20T12:22:35;11.07;;;2.45;;
11287;SDS011;5700;50.996;7.044;2023-12-20T12:25:45;8.85;;;2.33;;
11287;SDS011;5700;50.996;7.044;2023-12-20T12:29:01;14.13;;;2.60;;
11287;SDS011;5700;50.996;7.044;2023-12-20T12:32:21;11.32;;;2.15;;
11287;SDS011;5700;50.996;7.044;2023-12-20T12:35:25;9.45;;;2.45;;
11287;SDS011;5700;50.996;7.044;2023-12-20T12:38:31;9.02;;;2.55;;
11287;SDS011;5700;50.996;7.044;2023-12-20T12:41:34;8.60;;;2.17;;
11287;SDS011;5700;50.996;7.044;2023-12-20T12:44:39;11.50;;;2.83;;
11287;SDS011;5700;50.996;7.044;2023-12-20T12:47:47;11.35;;;2.65;;
11287;SDS011;5700;50.996;7.044;2023-12-20T12:50:58;7.88;;;2.35;;
11287;SDS011;5700;50.996;7.044;2023-12-20T12:54:01;8.35;;;2.33;;
11287;SDS011;5700;50.996;7.044;2023-12-20T12:57:05;7.88;;;2.90;;
11287;SDS011;5700;50.996;7.044;2023-12-20T13:00:19;7.20;;;3.30;;
11287;SDS011;5700;50.996;7.044;2023-12-20T13:04:12;7.03;;;1.92;;
11287;SDS011;5700;50.996;7.044;2023-12-20T13:07:22;7.88;;;2.38;;
11287;SDS011;5700;50.996;7.044;2023-12-20T13:10:25;7.65;;;2.20;;
11287;SDS011;5700;50.996;7.044;2023-12-20T13:13:27;8.07;;;2.38;;
11287;SDS011;5700;50.996;7.044;2023-12-20T13:16:29;10.15;;;2.55;;
11287;SDS011;5700;50.996;7.044;2023-12-20T13:19:30;9.93;;;2.90;;
11287;SDS011;5700;50.996;7.044;2023-12-20T13:22:33;11.40;;;2.13;;
11287;SDS011;5700;50.996;7.044;2023-12-20T13:25:36;6.90;;;2.90;;
11287;SDS011;5700;50.996;7.044;2023-12-20T13:28:38;11.43;;;3.20;;
11287;SDS011;5700;50.996;7.044;2023-12-20T13:31:42;12.73;;;3.05;;
11287;SDS011;5700;50.996;7.044;2023-12-20T13:34:43;8.43;;;2.85;;
11287;SDS011;5700;50.996;7.044;2023-12-20T13:37:49;7.25;;;2.17;;
11287;SDS011;5700;50.996;7.044;2023-12-20T13:40:56;9.30;;;2.70;;
11287;SDS011;5700;50.996;7.044;2023-12-20T13:44:07;9.48;;;2.65;;
11287;SDS011;5700;50.996;7.044;2023-12-20T13:47:35;10.40;;;2.45;;
11287;SDS011;5700;50.996;7.044;2023-12-20T13:50:37;13.13;;;2.55;;
11287;SDS011;5700;50.996;7.044;2023-12-20T13:53:39;9.85;;;2.70;;
11287;SDS011;5700;50.996;7.044;2023-12-20T13:56:41;6.75;;;1.85;;
11287;SDS011;5700;50.996;7.044;2023-12-20T13:59:43;7.43;;;2.17;;
11287;SDS011;5700;50.996;7.044;2023-12-20T14:02:45;12.80;;;2.70;;
11287;SDS011;5700;50.996;7.044;2023-12-20T14:05:47;9.30;;;2.08;;
11287;SDS011;5700;50.996;7.044;2023-12-20T14:08:51;13.05;;;2.65;;
11287;SDS011;5700;50.996;7.044;2023-12-20T14:11:53;10.00;;;2.42;;
11287;SDS011;5700;50.996;7.044;2023-12-20T14:14:54;10.27;;;2.70;;
11287;SDS011;5700;50.996;7.044;2023-12-20T14:17:56;7.00;;;2.10;;
11287;SDS011;5700;50.996;7.044;2023-12-20T14:20:58;9.43;;;2.90;;
11287;SDS011;5700;50.996;7.044;2023-12-20T14:24:01;7.07;;;2.13;;
11287;SDS011;5700;50.996;7.044;2023-12-20T14:27:04;7.05;;;2.45;;
11287;SDS011;5700;50.996;7.044;2023-12-20T14:30:05;12.18;;;3.05;;
11287;SDS011;5700;50.996;7.044;2023-12-20T14:33:07;7.15;;;2.17;;
11287;SDS011;5700;50.996;7.044;2023-12-20T14:36:09;5.63;;;2.05;;
11287;SDS011;5700;50.996;7.044;2023-12-20T14:39:12;6.78;;;2.17;;
11287;SDS011;5700;50.996;7.044;2023-12-20T14:42:16;6.78;;;2.28;;
11287;SDS011;5700;50.996;7.044;2023-12-20T14:45:18;4.32;;;2.17;;
11287;SDS011;5700;50.996;7.044;2023-12-20T14:48:19;6.70;;;2.28;;
11287;SDS011;5700;50.996;7.044;2023-12-20T14:51:21;5.97;;;2.08;;
11287;SDS011;5700;50.996;7.044;2023-12-20T14:54:24;6.55;;;2.28;;
11287;SDS011;5700;50.996;7.044;2023-12-20T14:57:26;7.97;;;2.65;;
11287;SDS011;5700;50.996;7.044;2023-12-20T15:00:28;8.75;;;2.33;;
11287;SDS011;5700;50.996;7.044;2023-12-20T15:03:29;11.23;;;2.17;;
11287;SDS011;5700;50.996;7.044;2023-12-20T15:06:31;10.35;;;2.42;;
11287;SDS011;5700;50.996;7.044;2023-12-20T15:09:35;8.60;;;2.22;;
11287;SDS011;5700;50.996;7.044;2023-12-20T15:12:36;6.55;;;2.28;;
11287;SDS011;5700;50.996;7.044;2023-12-20T15:15:38;8.13;;;2.42;;
11287;SDS011;5700;50.996;7.044;2023-12-20T15:18:39;8.35;;;2.45;;
11287;SDS011;5700;50.996;7.044;2023-12-20T15:21:41;12.32;;;4.30;;
11287;SDS011;5700;50.996;7.044;2023-12-20T15:24:44;3.90;;;2.05;;
11287;SDS011;5700;50.996;7.044;2023-12-20T15:27:47;12.02;;;2.72;;
11287;SDS011;5700;50.996;7.044;2023-12-20T15:30:52;7.97;;;1.98;;
11287;SDS011;5700;50.996;7.044;2023-12-20T15:33:54;10.60;;;2.67;;
11287;SDS011;5700;50.996;7.044;2023-12-20T15:36:56;10.27;;;2.20;;
11287;SDS011;5700;50.996;7.044;2023-12-20T15:40:00;8.55;;;2.28;;
11287;SDS011;5700;50.996;7.044;2023-12-20T15:43:02;4.53;;;2.28;;
11287;SDS011;5700;50.996;7.044;2023-12-20T15:46:04;6.95;;;2.95;;
11287;SDS011;5700;50.996;7.044;2023-12-20T15:49:06;10.52;;;2.30;;
11287;SDS011;5700;50.996;7.044;2023-12-20T15:52:07;8.40;;;2.42;;
11287;SDS011;5700;50.996;7.044;2023-12-20T15:55:10;8.25;;;2.78;;
11287;SDS011;5700;50.996;7.044;2023-12-20T15:58:12;7.03;;;2.40;;
11287;SDS011;5700;50.996;7.044;2023-12-20T16:01:13;7.60;;;2.85;;
11287;SDS011;5700;50.996;7.044;2023-12-20T16:04:15;9.57;;;3.20;;
11287;SDS011;5700;50.996;7.044;2023-12-20T16:07:17;8.45;;;2.80;;
11287;SDS011;5700;50.996;7.044;2023-12-20T16:10:20;10.95;;;2.83;;
11287;SDS011;5700;50.996;7.044;2023-12-20T16:13:21;8.90;;;2.58;;
11287;SDS011;5700;50.996;7.044;2023-12-20T16:16:23;10.15;;;3.50;;
11287;SDS011;5700;50.996;7.044;2023-12-20T16:19:25;6.72;;;2.40;;
11287;SDS011;5700;50.996;7.044;2023-12-20T16:22:26;9.70;;;2.90;;
11287;SDS011;5700;50.996;7.044;2023-12-20T16:25:29;10.80;;;2.83;;
11287;SDS011;5700;50.996;7.044;2023-12-20T16:28:31;5.97;;;2.63;;
11287;SDS011;5700;50.996;7.044;2023-12-20T16:31:33;7.80;;;3.15;;
11287;SDS011;5700;50.996;7.044;2023-12-20T16:34:34;10.00;;;3.35;;
11287;SDS011;5700;50.996;7.044;2023-12-20T16:37:36;6.07;;;2.50;;
11287;SDS011;5700;50.996;7.044;2023-12-20T16:40:39;8.52;;;3.10;;
11287;SDS011;5700;50.996;7.044;2023-12-20T16:43:41;10.07;;;3.42;;
11287;SDS011;5700;50.996;7.044;2023-12-20T16:46:43;10.40;;;3.25;;
11287;SDS011;5700;50.996;7.044;2023-12-20T16:49:44;8.27;;;3.38;;
11287;SDS011;5700;50.996;7.044;2023-12-20T16:52:46;9.07;;;3.00;;
11287;SDS011;5700;50.996;7.044;2023-12-20T16:55:52;11.80;;;3.30;;
11287;SDS011;5700;50.996;7.044;2023-12-20T16:58:54;12.15;;;3.45;;
11287;SDS011;5700;50.996;7.044;2023-12-20T17:01:56;11.07;;;3.08;;
11287;SDS011;5700;50.996;7.044;2023-12-20T17:04:58;7.68;;;2.90;;
11287;SDS011;5700;50.996;7.044;2023-12-20T17:07:59;7.70;;;2.35;;
11287;SDS011;5700;50.996;7.044;2023-12-20T17:11:02;10.75;;;3.33;;
11287;SDS011;5700;50.996;7.044;2023-12-20T17:14:04;9.00;;;2.78;;
11287;SDS011;5700;50.996;7.044;2023-12-20T17:17:06;8.57;;;2.65;;
11287;SDS011;5700;50.996;7.044;2023-12-20T17:20:08;11.38;;;3.40;;
11287;SDS011;5700;50.996;7.044;2023-12-20T17:23:10;12.95;;;3.53;;
11287;SDS011;5700;50.996;7.044;2023-12-20T17:26:13;5.93;;;2.80;;
11287;SDS011;5700;50.996;7.044;2023-12-20T17:29:15;12.27;;;3.60;;
11287;SDS011;5700;50.996;7.044;2023-12-20T17:32:16;7.18;;;3.05;;
11287;SDS011;5700;50.996;7.044;2023-12-20T17:35:18;10.05;;;2.63;;
11287;SDS011;5700;50.996;7.044;2023-12-20T17:38:20;10.52;;;3.42;;
11287;SDS011;5700;50.996;7.044;2023-12-20T17:41:23;8.82;;;2.80;;
11287;SDS011;5700;50.996;7.044;2023-12-20T17:44:24;8.20;;;3.10;;
11287;SDS011;5700;50.996;7.044;2023-12-20T17:47:26;13.77;;;3.88;;
11287;SDS011;5700;50.996;7.044;2023-12-20T17:50:29;11.07;;;3.58;;
11287;SDS011;5700;50.996;7.044;2023-12-20T17:53:31;11.45;;;3.47;;
11287;SDS011;5700;50.996;7.044;2023-12-20T17:56:34;10.68;;;3.45;;
11287;SDS011;5700;50.996;7.044;2023-12-20T17:59:35;11.48;;;3.55;;
11287;SDS011;5700;50.996;7.044;2023-12-20T18:02:38;10.07;;;3.47;;
11287;SDS011;5700;50.996;7.044;2023-12-20T18:05:40;15.43;;;3.42;;
11287;SDS011;5700;50.996;7.044;2023-12-20T18:08:42;7.82;;;2.83;;
11287;SDS011;5700;50.996;7.044;2023-12-20T18:11:45;11.65;;;3.78;;
11287;SDS011;5700;50.996;7.044;2023-12-20T18:14:47;8.05;;;3.85;;
11287;SDS011;5700;50.996;7.044;2023-12-20T18:17:51;12.20;;;3.33;;
11287;SDS011;5700;50.996;7.044;2023-12-20T18:20:52;11.35;;;3.63;;
11287;SDS011;5700;50.996;7.044;2023-12-20T18:23:55;8.90;;;3.50;;
11287;SDS011;5700;50.996;7.044;2023-12-20T18:26:58;7.55;;;2.95;;
11287;SDS011;5700;50.996;7.044;2023-12-20T18:30:00;11.15;;;3.25;;
11287;SDS011;5700;50.996;7.044;2023-12-20T18:33:05;8.65;;;2.45;;
11287;SDS011;5700;50.996;7.044;2023-12-20T18:36:07;10.55;;;3.38;;